Time;durP1;ratioP1;P1;durP2;ratioP2;P2;SDS_P1;SDS_P2;PMS_P1;PMS_P2;Temp;Humidity;BMP_temperature;BMP_pressure;BME280_temperature;BME280_humidity;BME280_pressure;Samples;Min_cycle;Max_cycle;Signal;HPM_P1;HPM_P2
2021/07/13 00:01:24;;;;;;;;;;;;;;;18.03;78.75;100557.95;1686187;83;20797;-76
2021/07/13 00:03:53;;;;;;;;;;;;;;;18.03;78.66;100559.72;1688076;83;20147;-76
2021/07/13 00:06:18;;;;;;;;;;;;;;;18.00;78.67;100561.16;1683761;83;20581;-76
2021/07/13 00:08:44;;;;;;;;;;;;;;;17.92;78.62;100543.67;1689064;83;20308;-76
2021/07/13 00:11:10;;;;;;;;;;;;;;;17.88;78.52;100550.81;1688102;83;20150;-76
2021/07/13 00:16:59;;;;;;;;;;;;;;;17.86;78.97;100544.81;1686898;83;20241;-76
2021/07/13 00:19:25;;;;;;;;;;;;;;;17.86;78.79;100543.50;1680220;83;20210;-76
2021/07/13 00:21:51;;;;;;;;;;;;;;;17.84;78.91;100538.34;1688768;83;20248;-76
2021/07/13 00:24:17;;;;;;;;;;;;;;;17.83;78.98;100543.19;1691693;83;20217;-76
2021/07/13 00:26:43;;;;;;;;;;;;;;;17.83;78.99;100538.41;1703938;83;20205;-76
2021/07/13 00:29:10;;;;;;;;;;;;;;;17.67;78.49;100542.23;1688255;83;20245;-76
2021/07/13 00:31:35;;;;;;;;;;;;;;;17.52;78.63;100533.30;1688685;83;20268;-76
2021/07/13 00:34:01;;;;;;;;;;;;;;;17.49;78.80;100533.89;1688522;83;20193;-76
2021/07/13 00:36:28;;;;;;;;;;;;;;;17.45;78.87;100534.49;1701997;82;20143;-75
2021/07/13 00:38:54;;;;;;;;;;;;;;;17.44;78.96;100527.56;1718949;82;20340;-75
2021/07/13 00:41:20;;;;;;;;;;;;;;;17.41;78.92;100535.55;1718654;82;21416;-75
2021/07/13 00:43:48;;;;;;;;;;;;;;;17.38;79.03;100534.38;1718921;82;20459;-75
2021/07/13 00:46:14;;;;;;;;;;;;;;;17.36;79.01;100524.91;1718711;82;20623;-75
2021/07/13 00:48:40;;;;;;;;;;;;;;;17.36;79.17;100524.91;1718957;82;20185;-75
2021/07/13 00:51:06;;;;;;;;;;;;;;;17.37;79.26;100529.22;1720091;82;20119;-75
2021/07/13 00:53:32;;;;;;;;;;;;;;;17.37;79.23;100526.61;1718868;83;20496;-75
2021/07/13 00:55:59;;;;;;;;;;;;;;;17.32;78.98;100529.43;1719296;82;21020;-75
2021/07/13 00:58:25;;;;;;;;;;;;;;;17.24;79.04;100532.00;1720025;82;20119;-75
2021/07/13 01:00:52;;;;;;;;;;;;;;;17.15;78.90;100538.05;1709088;83;20128;-75
2021/07/13 01:03:18;;;;;;;;;;;;;;;17.12;79.19;100534.27;1720029;82;20107;-75
2021/07/13 01:05:46;;;;;;;;;;;;;;;17.08;79.13;100539.23;1720380;82;20646;-75
2021/07/13 01:08:37;;;;;;;;;;;;;;;17.08;79.19;100537.08;1720280;82;20123;-75
2021/07/13 01:11:25;;;;;;;;;;;;;;;17.06;79.25;100534.54;1709889;82;20080;-76
2021/07/13 01:14:09;;;;;;;;;;;;;;;17.11;79.47;100528.66;1716476;83;20092;-76
2021/07/13 01:16:57;;;;;;;;;;;;;;;17.14;79.47;100525.05;1720214;82;20092;-76
2021/07/13 01:19:34;;;;;;;;;;;;;;;17.16;79.55;100533.19;1720332;83;20112;-76
2021/07/13 01:22:07;;;;;;;;;;;;;;;17.13;79.38;100545.11;1718552;82;20453;-76
2021/07/13 01:25:04;;;;;;;;;;;;;;;17.07;79.38;100538.00;1717354;82;20088;-76
2021/07/13 01:27:37;;;;;;;;;;;;;;;17.05;79.35;100530.69;1720438;82;20116;-76
2021/07/13 01:30:11;;;;;;;;;;;;;;;16.98;79.51;100531.41;1720056;83;20120;-76
2021/07/13 01:32:38;;;;;;;;;;;;;;;16.97;79.57;100538.86;1716345;82;20111;-76
2021/07/13 01:35:07;;;;;;;;;;;;;;;16.95;79.43;100542.45;1721687;82;20129;-76
2021/07/13 01:37:35;;;;;;;;;;;;;;;16.85;79.45;100542.84;1719743;82;20099;-76
2021/07/13 01:40:03;;;;;;;;;;;;;;;16.85;79.58;100542.00;1720283;82;20091;-76
2021/07/13 01:42:30;;;;;;;;;;;;;;;16.80;79.50;100537.42;1720328;82;20375;-75
2021/07/13 01:44:57;;;;;;;;;;;;;;;16.70;79.40;100535.66;1720398;82;20123;-75
2021/07/13 01:47:24;;;;;;;;;;;;;;;16.64;79.39;100548.09;1720435;82;20099;-75
2021/07/13 01:49:50;;;;;;;;;;;;;;;16.50;79.22;100548.24;1720320;82;20100;-75
2021/07/13 01:52:16;;;;;;;;;;;;;;;16.46;79.56;100547.12;1720515;82;20485;-75
2021/07/13 01:54:44;;;;;;;;;;;;;;;16.49;79.74;100548.30;1720662;82;20344;-75
2021/07/13 01:57:10;;;;;;;;;;;;;;;16.53;79.81;100551.18;1720452;82;20083;-75
2021/07/13 01:59:39;;;;;;;;;;;;;;;16.59;79.86;100553.54;1720574;82;20116;-76
2021/07/13 02:02:06;;;;;;;;;;;;;;;16.58;79.72;100553.14;1719107;82;20166;-76
2021/07/13 02:04:34;;;;;;;;;;;;;;;16.52;79.57;100546.41;1707519;83;20348;-76
2021/07/13 02:07:03;;;;;;;;;;;;;;;16.48;79.76;100551.38;1718678;82;20207;-76
2021/07/13 02:09:30;;;;;;;;;;;;;;;16.54;79.99;100552.88;1719599;82;20122;-76
2021/07/13 02:11:57;;;;;;;;;;;;;;;16.59;80.04;100552.23;1718711;82;20191;-76
2021/07/13 02:14:23;;;;;;;;;;;;;;;16.62;79.99;100555.17;1718844;82;20163;-76
2021/07/13 02:16:50;;;;;;;;;;;;;;;16.63;79.94;100555.11;1718412;82;20186;-76
2021/07/13 02:19:16;;;;;;;;;;;;;;;16.58;79.70;100552.30;1718769;82;20195;-76
2021/07/13 02:21:43;;;;;;;;;;;;;;;16.52;79.88;100549.48;1718357;82;20372;-76
2021/07/13 02:24:09;;;;;;;;;;;;;;;16.56;80.06;100551.05;1718700;82;20175;-76
2021/07/13 02:26:53;;;;;;;;;;;;;;;16.52;79.83;100554.25;1718873;82;20175;-76
2021/07/13 02:29:40;;;;;;;;;;;;;;;16.52;80.06;100558.62;1718442;83;20513;-75
2021/07/13 02:32:12;;;;;;;;;;;;;;;16.49;80.03;100555.68;1718960;82;20183;-75
2021/07/13 02:34:40;;;;;;;;;;;;;;;16.43;80.00;100558.54;1720208;82;20126;-75
2021/07/13 02:37:08;;;;;;;;;;;;;;;16.40;80.05;100559.12;1722442;82;20134;-75
2021/07/13 02:39:34;;;;;;;;;;;;;;;16.38;80.10;100556.57;1725512;82;20175;-76
2021/07/13 02:42:01;;;;;;;;;;;;;;;16.39;80.19;100554.81;1725100;82;20184;-76
2021/07/13 02:44:29;;;;;;;;;;;;;;;16.42;80.21;100556.84;1724876;81;20189;-76
2021/07/13 02:46:56;;;;;;;;;;;;;;;16.40;80.15;100556.05;1725184;81;20218;-75
2021/07/13 02:49:31;;;;;;;;;;;;;;;16.41;80.28;100558.20;1724991;81;20474;-75
2021/07/13 02:51:57;;;;;;;;;;;;;;;16.44;80.34;100552.86;1724906;82;20203;-75
2021/07/13 02:54:26;;;;;;;;;;;;;;;16.47;80.46;100544.45;1725006;82;20203;-75
2021/07/13 02:56:52;;;;;;;;;;;;;;;16.53;80.48;100544.20;1725027;82;20194;-75
2021/07/13 02:59:19;;;;;;;;;;;;;;;16.56;80.32;100548.44;1725055;81;20209;-75
2021/07/13 03:01:46;;;;;;;;;;;;;;;16.58;80.51;100549.69;1724789;82;20206;-75
2021/07/13 03:04:12;;;;;;;;;;;;;;;16.60;80.41;100546.09;1724947;82;20174;-75
2021/07/13 03:06:38;;;;;;;;;;;;;;;16.60;80.40;100551.78;1724746;82;20180;-75
2021/07/13 03:09:06;;;;;;;;;;;;;;;16.57;80.35;100550.14;1704316;83;20103;-75
2021/07/13 03:11:33;;;;;;;;;;;;;;;16.55;80.35;100550.66;1729019;81;20098;-75
2021/07/13 03:14:01;;;;;;;;;;;;;;;16.57;80.43;100544.92;1729489;81;20157;-75
2021/07/13 03:16:30;;;;;;;;;;;;;;;16.58;80.41;100544.01;1727357;81;20131;-75
2021/07/13 03:18:56;;;;;;;;;;;;;;;16.54;80.37;100538.06;1741953;81;20095;-75
2021/07/13 03:21:25;;;;;;;;;;;;;;;16.60;80.58;100538.72;1732708;81;20241;-75
2021/07/13 03:23:52;;;;;;;;;;;;;;;16.61;80.50;100529.52;1742576;81;20128;-75
2021/07/13 03:26:18;;;;;;;;;;;;;;;16.60;80.36;100534.81;1729457;81;20088;-75
2021/07/13 03:28:45;;;;;;;;;;;;;;;16.61;80.59;100539.97;1732550;81;20396;-75
2021/07/13 03:31:11;;;;;;;;;;;;;;;16.69;80.65;100533.97;1726544;82;20107;-75
2021/07/13 03:33:38;;;;;;;;;;;;;;;16.75;80.70;100539.38;1734062;81;32377;-75
2021/07/13 03:36:04;;;;;;;;;;;;;;;16.80;80.73;100532.20;1723338;82;20433;-75
2021/07/13 03:38:31;;;;;;;;;;;;;;;16.82;80.61;100527.30;1726175;82;20542;-75
2021/07/13 03:40:57;;;;;;;;;;;;;;;16.84;80.58;100529.39;1726931;82;20501;-75
2021/07/13 03:43:26;;;;;;;;;;;;;;;16.86;80.70;100526.72;1726445;82;20139;-76
2021/07/13 03:45:52;;;;;;;;;;;;;;;16.93;80.83;100530.77;1726386;82;20107;-76
2021/07/13 03:48:19;;;;;;;;;;;;;;;16.99;80.80;100531.80;1726755;82;20090;-76
2021/07/13 03:50:46;;;;;;;;;;;;;;;17.06;80.88;100531.08;1726550;82;20094;-76
2021/07/13 03:53:13;;;;;;;;;;;;;;;17.13;80.89;100541.65;1726678;82;20375;-76
2021/07/13 03:55:39;;;;;;;;;;;;;;;17.16;80.79;100534.95;1726828;82;20119;-76
2021/07/13 03:58:05;;;;;;;;;;;;;;;17.17;80.82;100529.66;1726277;82;20839;-76
2021/07/13 04:00:32;;;;;;;;;;;;;;;17.19;80.84;100525.20;1719493;82;20130;-76
2021/07/13 04:02:58;;;;;;;;;;;;;;;17.23;80.81;100523.77;1726614;82;20115;-76
2021/07/13 04:05:25;;;;;;;;;;;;;;;17.24;80.80;100522.39;1725144;82;20327;-76
2021/07/13 04:07:51;;;;;;;;;;;;;;;17.30;80.83;100520.81;1724820;82;20150;-76
2021/07/13 04:10:17;;;;;;;;;;;;;;;17.35;80.89;100521.91;1725274;82;20331;-76
2021/07/13 04:12:43;;;;;;;;;;;;;;;17.45;80.90;100527.95;1725264;82;20138;-76
2021/07/13 04:15:12;;;;;;;;;;;;;;;17.59;80.84;100536.48;1725269;82;20532;-76
2021/07/13 04:17:37;;;;;;;;;;;;;;;17.68;80.87;100529.52;1726990;81;20311;-76
2021/07/13 04:20:05;;;;;;;;;;;;;;;17.81;80.95;100525.41;1725315;82;20131;-76
2021/07/13 04:22:31;;;;;;;;;;;;;;;17.87;80.90;100521.66;1733827;82;20122;-76
2021/07/13 04:24:57;;;;;;;;;;;;;;;17.91;80.73;100517.97;1726476;82;20154;-75
2021/07/13 04:27:23;;;;;;;;;;;;;;;17.91;80.69;100531.05;1725486;82;20622;-75
2021/07/13 04:29:50;;;;;;;;;;;;;;;17.96;80.91;100532.99;1725075;82;20780;-75
2021/07/13 04:32:16;;;;;;;;;;;;;;;18.05;80.97;100541.71;1726865;82;20086;-75
2021/07/13 04:34:42;;;;;;;;;;;;;;;18.13;80.88;100536.95;1727187;82;20394;-75
2021/07/13 04:37:08;;;;;;;;;;;;;;;18.14;80.88;100536.50;1727075;82;20194;-76
2021/07/13 04:39:34;;;;;;;;;;;;;;;18.17;80.90;100531.96;1727070;81;20103;-76
2021/07/13 04:42:00;;;;;;;;;;;;;;;18.21;80.80;100544.41;1727157;82;20236;-76
2021/07/13 04:44:26;;;;;;;;;;;;;;;18.19;80.78;100543.66;1726325;82;20099;-76
2021/07/13 04:46:54;;;;;;;;;;;;;;;18.21;80.62;100532.63;1718583;83;20415;-76
2021/07/13 04:49:20;;;;;;;;;;;;;;;18.17;80.57;100542.43;1699527;81;20417;-75
2021/07/13 04:51:47;;;;;;;;;;;;;;;18.15;80.67;100541.66;1727099;82;20095;-76
2021/07/13 04:54:13;;;;;;;;;;;;;;;18.14;80.67;100540.42;1727100;81;20205;-76
2021/07/13 04:56:39;;;;;;;;;;;;;;;18.22;80.88;100539.56;1721746;81;20121;-76
2021/07/13 04:59:05;;;;;;;;;;;;;;;18.31;81.00;100536.95;1721255;81;20886;-76
2021/07/13 05:01:31;;;;;;;;;;;;;;;18.41;80.87;100548.67;1731522;81;20412;-76
2021/07/13 05:03:56;;;;;;;;;;;;;;;18.45;80.93;100548.45;1730505;81;20740;-76
2021/07/13 05:06:22;;;;;;;;;;;;;;;18.55;80.88;100544.06;1719673;81;20473;-76
2021/07/13 05:08:48;;;;;;;;;;;;;;;18.78;81.17;100545.91;1727004;81;20210;-76
2021/07/13 05:11:14;;;;;;;;;;;;;;;19.21;81.43;100549.40;1712821;81;20707;-75
2021/07/13 05:13:40;;;;;;;;;;;;;;;19.64;81.19;100547.95;1694393;82;20161;-75
2021/07/13 05:16:06;;;;;;;;;;;;;;;20.05;81.21;100542.55;1724757;81;20852;-76
2021/07/13 05:18:34;;;;;;;;;;;;;;;20.51;80.91;100547.80;1726500;82;20402;-75
2021/07/13 05:21:04;;;;;;;;;;;;;;;21.02;80.69;100555.67;1709631;82;20412;-75
2021/07/13 05:23:28;;;;;;;;;;;;;;;21.52;80.49;100558.32;1731434;82;20536;-76
2021/07/13 05:25:54;;;;;;;;;;;;;;;21.94;80.09;100552.11;1725598;81;20380;-76
2021/07/13 05:28:20;;;;;;;;;;;;;;;22.32;80.16;100545.70;1732996;81;20423;-75
2021/07/13 05:30:46;;;;;;;;;;;;;;;22.70;79.67;100537.01;1722940;81;20553;-75
2021/07/13 05:33:14;;;;;;;;;;;;;;;23.13;79.75;100539.36;1728625;81;20122;-75
2021/07/13 05:35:42;;;;;;;;;;;;;;;23.61;79.70;100535.06;1743625;81;20123;-75
2021/07/13 05:38:08;;;;;;;;;;;;;;;24.07;78.95;100534.72;1723550;81;20407;-75
2021/07/13 05:40:34;;;;;;;;;;;;;;;24.43;78.85;100529.83;1726114;82;20110;-75
2021/07/13 05:43:00;;;;;;;;;;;;;;;24.72;78.25;100522.34;1726077;82;20406;-75
2021/07/13 05:45:26;;;;;;;;;;;;;;;25.06;78.59;100527.69;1713694;82;20137;-75
2021/07/13 05:47:52;;;;;;;;;;;;;;;25.49;78.43;100515.86;1728066;82;20239;-75
2021/07/13 05:50:18;;;;;;;;;;;;;;;25.88;78.17;100516.30;1729060;82;20156;-76
2021/07/13 05:52:44;;;;;;;;;;;;;;;26.11;77.80;100516.55;1728824;82;20216;-76
2021/07/13 05:55:10;;;;;;;;;;;;;;;26.58;78.25;100520.55;1711371;82;20141;-76
2021/07/13 05:57:36;;;;;;;;;;;;;;;27.04;78.21;100517.48;1710324;82;20094;-75
2021/07/13 06:00:08;;;;;;;;;;;;;;;27.17;77.15;100522.56;1714360;82;20411;-75
2021/07/13 06:02:34;;;;;;;;;;;;;;;27.28;77.35;100524.29;1711065;82;20261;-75
2021/07/13 06:05:00;;;;;;;;;;;;;;;27.46;77.78;100530.65;1704559;82;20176;-75
2021/07/13 06:07:26;;;;;;;;;;;;;;;27.83;77.55;100524.73;1713153;82;20123;-75
2021/07/13 06:09:52;;;;;;;;;;;;;;;28.12;77.23;100525.58;1709161;82;20264;-75
2021/07/13 06:12:18;;;;;;;;;;;;;;;28.41;77.21;100518.95;1702427;82;20241;-75
2021/07/13 06:14:44;;;;;;;;;;;;;;;28.64;76.79;100526.95;1710317;82;20740;-75
2021/07/13 06:17:10;;;;;;;;;;;;;;;28.79;76.46;100529.16;1715017;82;20875;-75
2021/07/13 06:19:36;;;;;;;;;;;;;;;28.77;76.58;100527.14;1707057;82;20512;-75
2021/07/13 06:22:03;;;;;;;;;;;;;;;28.96;76.42;100525.79;1716988;82;20685;-75
2021/07/13 06:24:30;;;;;;;;;;;;;;;29.15;76.62;100527.02;1713485;82;20463;-75
2021/07/13 06:26:56;;;;;;;;;;;;;;;29.37;76.24;100521.81;1718503;82;20449;-75
2021/07/13 06:29:23;;;;;;;;;;;;;;;29.50;76.12;100521.01;1707386;82;20112;-75
2021/07/13 06:31:51;;;;;;;;;;;;;;;29.58;76.11;100521.59;1745936;80;567116;-75
2021/07/13 06:34:17;;;;;;;;;;;;;;;29.57;75.50;100523.42;1743940;80;20556;-75
2021/07/13 06:36:43;;;;;;;;;;;;;;;29.55;75.53;100528.06;1730679;81;20429;-76
2021/07/13 06:39:09;;;;;;;;;;;;;;;29.38;75.59;100512.84;1754766;80;20428;-75
2021/07/13 06:41:35;;;;;;;;;;;;;;;29.38;75.57;100508.00;1744420;80;20542;-75
2021/07/13 06:44:01;;;;;;;;;;;;;;;29.52;75.74;100509.70;1706563;82;20678;-75
2021/07/13 06:46:27;;;;;;;;;;;;;;;29.65;75.53;100511.49;1761036;80;20507;-75
2021/07/13 06:48:53;;;;;;;;;;;;;;;29.73;75.09;100514.74;1725029;80;20523;-75
2021/07/13 06:51:19;;;;;;;;;;;;;;;29.60;74.32;100516.47;1723663;80;20129;-75
2021/07/13 06:53:46;;;;;;;;;;;;;;;29.49;74.58;100510.00;1735895;80;20137;-75
2021/07/13 06:56:12;;;;;;;;;;;;;;;29.41;74.36;100511.23;1748824;80;20824;-75
2021/07/13 06:58:38;;;;;;;;;;;;;;;29.24;74.30;100513.32;1742875;80;20560;-76
2021/07/13 07:01:04;;;;;;;;;;;;;;;29.32;74.39;100513.42;1746228;80;20466;-75
2021/07/13 07:03:30;;;;;;;;;;;;;;;29.42;74.11;100505.42;1748154;80;20510;-75
2021/07/13 07:05:56;;;;;;;;;;;;;;;29.45;73.77;100507.30;1767029;80;20483;-76
2021/07/13 07:08:22;;;;;;;;;;;;;;;29.62;73.77;100513.65;1764148;80;20550;-76
2021/07/13 07:10:48;;;;;;;;;;;;;;;29.70;73.60;100512.38;1751432;80;20483;-76
2021/07/13 07:13:15;;;;;;;;;;;;;;;29.82;73.47;100516.50;1755823;80;20116;-76
2021/07/13 07:15:41;;;;;;;;;;;;;;;29.79;72.87;100510.14;1748432;80;20548;-76
2021/07/13 07:18:07;;;;;;;;;;;;;;;29.58;72.58;100513.60;1760778;80;20231;-75
2021/07/13 07:20:34;;;;;;;;;;;;;;;29.67;72.87;100514.01;1753188;80;20167;-75
2021/07/13 07:23:00;;;;;;;;;;;;;;;29.84;72.28;100517.20;1747106;80;20198;-76
2021/07/13 07:25:30;;;;;;;;;;;;;;;29.88;72.57;100515.91;1747377;80;20554;-75
2021/07/13 07:27:57;;;;;;;;;;;;;;;30.11;72.57;100510.99;1750559;80;20217;-74
2021/07/13 07:30:25;;;;;;;;;;;;;;;30.32;72.36;100501.80;1741165;80;20152;-75
2021/07/13 07:32:51;;;;;;;;;;;;;;;30.34;71.76;100509.99;1692312;83;20464;-75
2021/07/13 07:35:18;;;;;;;;;;;;;;;30.29;72.03;100501.12;1753485;80;20118;-75
2021/07/13 07:37:44;;;;;;;;;;;;;;;30.35;72.11;100498.83;1710595;83;20108;-76
2021/07/13 07:40:17;;;;;;;;;;;;;;;30.41;72.26;100495.04;1686569;83;20103;-76
2021/07/13 07:42:41;;;;;;;;;;;;;;;30.66;72.15;100488.58;1699181;83;20119;-75
2021/07/13 07:45:08;;;;;;;;;;;;;;;30.75;71.83;100490.27;1725487;82;20100;-76
2021/07/13 07:47:35;;;;;;;;;;;;;;;30.78;71.65;100488.63;1724759;81;20456;-75
2021/07/13 07:50:01;;;;;;;;;;;;;;;30.89;71.26;100487.02;1704841;83;20134;-75
2021/07/13 07:52:27;;;;;;;;;;;;;;;31.10;71.04;100481.28;1724648;82;20113;-76
2021/07/13 07:54:54;;;;;;;;;;;;;;;31.14;71.10;100480.00;1705492;83;20111;-75
2021/07/13 07:57:20;;;;;;;;;;;;;;;30.87;70.03;100473.83;1705860;82;20130;-75
2021/07/13 07:59:46;;;;;;;;;;;;;;;30.99;70.34;100471.72;1705860;82;20094;-75
2021/07/13 08:02:14;;;;;;;;;;;;;;;31.09;69.93;100475.61;1725029;82;20449;-75
2021/07/13 08:04:40;;;;;;;;;;;;;;;31.03;69.85;100477.08;1705793;83;20150;-76
2021/07/13 08:07:06;;;;;;;;;;;;;;;30.91;69.24;100471.67;1705978;83;20094;-76
2021/07/13 08:09:32;;;;;;;;;;;;;;;30.88;69.37;100467.48;1725473;82;20124;-76
2021/07/13 08:11:58;;;;;;;;;;;;;;;30.95;69.31;100465.02;1705470;83;20094;-76
2021/07/13 08:14:24;;;;;;;;;;;;;;;30.98;68.96;100463.37;1740052;81;20186;-76
2021/07/13 08:16:52;;;;;;;;;;;;;;;30.85;69.12;100468.30;1745317;81;20153;-76
2021/07/13 08:19:19;;;;;;;;;;;;;;;30.66;68.61;100460.05;1739474;81;20121;-76
2021/07/13 08:21:45;;;;;;;;;;;;;;;30.57;68.66;100463.66;1743609;80;20137;-76
2021/07/13 08:24:11;;;;;;;;;;;;;;;30.49;68.41;100457.74;1742392;80;20130;-76
2021/07/13 08:26:38;;;;;;;;;;;;;;;30.48;68.36;100457.90;1730393;81;20184;-75
2021/07/13 08:29:04;;;;;;;;;;;;;;;30.39;67.82;100465.01;1745605;80;20222;-76
2021/07/13 08:31:30;;;;;;;;;;;;;;;30.38;67.93;100469.17;1734873;81;20248;-76
2021/07/13 08:33:57;;;;;;;;;;;;;;;30.38;67.84;100466.50;1727203;80;20204;-76
2021/07/13 08:36:23;;;;;;;;;;;;;;;30.40;67.58;100461.84;1732921;81;20210;-75
2021/07/13 08:38:49;;;;;;;;;;;;;;;30.32;67.73;100455.11;1743747;81;20575;-75
2021/07/13 08:41:20;;;;;;;;;;;;;;;30.21;67.25;100455.70;1749685;80;20132;-75
2021/07/13 08:43:46;;;;;;;;;;;;;;;30.10;67.12;100448.47;1746643;80;20134;-76
2021/07/13 08:46:12;;;;;;;;;;;;;;;30.11;67.16;100454.14;1746444;80;20199;-76
2021/07/13 08:48:40;;;;;;;;;;;;;;;30.00;67.08;100452.55;1747160;80;20120;-76
2021/07/13 08:51:07;;;;;;;;;;;;;;;29.78;66.87;100459.16;1747912;80;144271;-76
2021/07/13 08:53:33;;;;;;;;;;;;;;;29.47;66.62;100461.84;1772686;79;20149;-76
2021/07/13 08:56:00;;;;;;;;;;;;;;;29.28;66.63;100452.95;1767470;79;20166;-75
2021/07/13 08:58:27;;;;;;;;;;;;;;;29.21;66.58;100450.53;1775838;79;20367;-75
2021/07/13 09:00:53;;;;;;;;;;;;;;;29.45;66.32;100455.83;1750144;81;20227;-75
2021/07/13 09:03:21;;;;;;;;;;;;;;;29.90;66.31;100459.77;1737234;81;20184;-75
2021/07/13 09:05:53;;;;;;;;;;;;;;;30.26;65.69;100449.91;1736890;81;20184;-75
2021/07/13 09:08:25;;;;;;;;;;;;;;;30.75;65.57;100450.23;1737114;81;20200;-76
2021/07/13 09:11:12;;;;;;;;;;;;;;;31.11;65.50;100449.57;1737437;81;20120;-75
2021/07/13 09:13:44;;;;;;;;;;;;;;;31.47;65.02;100440.84;1735669;81;20096;-75
2021/07/13 09:16:13;;;;;;;;;;;;;;;31.90;64.86;100441.07;1712131;81;20131;-76
2021/07/13 09:18:42;;;;;;;;;;;;;;;32.18;64.49;100438.90;1737730;81;20162;-75
2021/07/13 09:21:20;;;;;;;;;;;;;;;32.34;64.38;100438.05;1735790;81;20127;-75
2021/07/13 09:24:06;;;;;;;;;;;;;;;32.51;64.62;100432.50;1738598;81;20140;-75
2021/07/13 09:26:38;;;;;;;;;;;;;;;32.45;64.05;100446.56;1720415;81;20108;-75
2021/07/13 09:29:04;;;;;;;;;;;;;;;32.09;64.01;100439.91;1733093;81;20115;-75
2021/07/13 09:31:30;;;;;;;;;;;;;;;31.76;63.84;100431.03;1738038;81;20100;-75
2021/07/13 09:33:57;;;;;;;;;;;;;;;31.17;63.75;100435.59;1731681;81;20122;-75
2021/07/13 09:36:23;;;;;;;;;;;;;;;30.56;63.79;100439.27;1752444;81;20401;-75
2021/07/13 09:38:54;;;;;;;;;;;;;;;30.12;63.92;100439.32;1747980;81;20137;-75
2021/07/13 09:41:32;;;;;;;;;;;;;;;29.79;63.82;100431.50;1732369;81;20104;-75
2021/07/13 09:44:01;;;;;;;;;;;;;;;29.46;63.51;100430.37;1746203;81;20108;-75
2021/07/13 09:46:36;;;;;;;;;;;;;;;29.04;63.06;100430.55;1730003;81;20102;-75
2021/07/13 09:49:06;;;;;;;;;;;;;;;28.66;62.94;100423.86;1731202;81;20101;-75
2021/07/13 09:51:32;;;;;;;;;;;;;;;28.42;62.92;100428.02;1732129;81;323038;-75
2021/07/13 09:53:58;;;;;;;;;;;;;;;28.25;62.91;100422.45;1748971;81;20093;-75
2021/07/13 09:56:42;;;;;;;;;;;;;;;28.17;62.96;100424.12;1729928;80;20131;-75
2021/07/13 09:59:07;;;;;;;;;;;;;;;28.16;62.69;100419.78;1766035;80;20179;-75
2021/07/13 10:01:34;;;;;;;;;;;;;;;28.11;62.36;100423.36;1780058;80;20203;-75
2021/07/13 10:04:01;;;;;;;;;;;;;;;28.10;62.35;100421.67;1764435;80;20117;-75
2021/07/13 10:06:30;;;;;;;;;;;;;;;28.06;62.30;100422.48;1747201;80;20171;-75
2021/07/13 10:08:59;;;;;;;;;;;;;;;28.03;62.25;100421.92;1731285;80;20177;-75
2021/07/13 10:11:28;;;;;;;;;;;;;;;28.01;62.19;100421.58;1734374;80;20184;-75
2021/07/13 10:13:54;;;;;;;;;;;;;;;28.03;62.04;100417.45;1761613;80;20112;-75
2021/07/13 10:16:20;;;;;;;;;;;;;;;28.04;62.02;100418.28;1761154;80;20174;-75
2021/07/13 10:18:46;;;;;;;;;;;;;;;28.00;61.54;100415.91;1742209;81;20204;-75
2021/07/13 10:21:14;;;;;;;;;;;;;;;27.95;61.94;100412.00;1760757;80;20185;-75
2021/07/13 10:23:43;;;;;;;;;;;;;;;27.97;61.57;100418.84;1763708;80;20132;-75
2021/07/13 10:26:11;;;;;;;;;;;;;;;27.94;61.52;100417.80;1760008;80;20436;-75
2021/07/13 10:28:39;;;;;;;;;;;;;;;27.96;61.56;100414.52;1738716;82;20126;-75
2021/07/13 10:31:05;;;;;;;;;;;;;;;28.04;61.63;100408.49;1742028;81;20095;-76
2021/07/13 10:33:36;;;;;;;;;;;;;;;28.07;61.51;100409.53;1745545;81;20477;-75
2021/07/13 10:36:26;;;;;;;;;;;;;;;28.09;61.28;100404.05;1745983;81;20499;-75
2021/07/13 10:39:25;;;;;;;;;;;;;;;28.12;61.38;100399.28;1751822;80;20144;-75
2021/07/13 10:41:52;;;;;;;;;;;;;;;28.09;61.05;100398.73;1732293;81;20107;-75
2021/07/13 10:44:36;;;;;;;;;;;;;;;28.08;61.11;100407.20;1735317;81;20545;-75
2021/07/13 10:47:23;;;;;;;;;;;;;;;28.08;61.01;100405.87;1730157;80;20121;-75
2021/07/13 10:50:09;;;;;;;;;;;;;;;28.18;61.09;100403.20;1715319;80;20520;-75
2021/07/13 10:52:59;;;;;;;;;;;;;;;28.20;60.88;100400.73;1714832;80;20090;-76
2021/07/13 10:55:34;;;;;;;;;;;;;;;28.20;60.91;100407.88;1731382;81;20465;-75
2021/07/13 10:58:16;;;;;;;;;;;;;;;28.19;60.92;100401.72;1766343;80;20100;-76
2021/07/13 11:00:53;;;;;;;;;;;;;;;28.19;60.70;100403.54;1750931;80;20119;-76
2021/07/13 11:03:31;;;;;;;;;;;;;;;28.28;60.95;100400.06;1749366;80;20097;-76
2021/07/13 11:05:58;;;;;;;;;;;;;;;28.36;60.47;100402.00;1770664;80;20093;-75
2021/07/13 11:11:20;;;;;;;;;;;;;;;28.55;60.47;100392.64;1706876;82;20086;-75
2021/07/13 11:13:56;;;;;;;;;;;;;;;28.55;60.13;100388.64;1724455;82;20132;-75
2021/07/13 11:16:24;;;;;;;;;;;;;;;28.53;60.02;100386.13;1714892;82;20155;-76
2021/07/13 11:18:51;;;;;;;;;;;;;;;28.52;60.13;100383.62;1711189;82;20164;-76
2021/07/13 11:21:18;;;;;;;;;;;;;;;28.47;60.12;100382.72;1729076;82;20125;-75
2021/07/13 11:23:45;;;;;;;;;;;;;;;28.35;59.75;100383.88;1712892;82;20130;-75
2021/07/13 11:26:13;;;;;;;;;;;;;;;28.29;60.11;100373.81;1719166;82;20121;-75
2021/07/13 11:28:44;;;;;;;;;;;;;;;28.30;60.10;100376.33;1711848;82;20137;-75
2021/07/13 11:31:10;;;;;;;;;;;;;;;28.34;59.82;100380.38;1700711;82;20500;-75
2021/07/13 11:33:37;;;;;;;;;;;;;;;28.33;59.76;100374.71;1704900;82;20201;-75
2021/07/13 11:36:04;;;;;;;;;;;;;;;28.40;59.88;100384.28;1706928;82;20188;-75
2021/07/13 11:38:32;;;;;;;;;;;;;;;28.42;59.78;100384.98;1711630;82;20149;-75
2021/07/13 11:41:12;;;;;;;;;;;;;;;28.42;59.71;100386.80;1721219;82;20156;-75
2021/07/13 11:43:38;;;;;;;;;;;;;;;28.39;59.71;100384.42;1710159;82;21877;-75
2021/07/13 11:46:18;;;;;;;;;;;;;;;28.41;59.95;100379.31;1734271;81;20149;-75
2021/07/13 11:49:03;;;;;;;;;;;;;;;28.50;59.65;100386.42;1745397;80;20182;-75
2021/07/13 11:51:35;;;;;;;;;;;;;;;28.59;59.66;100374.07;1710999;80;20173;-75
2021/07/13 11:54:13;;;;;;;;;;;;;;;28.61;59.43;100373.40;1742420;80;20175;-75
2021/07/13 11:56:44;;;;;;;;;;;;;;;28.51;59.36;100369.47;1740364;80;20136;-75
2021/07/13 11:59:10;;;;;;;;;;;;;;;28.55;59.63;100366.03;1759342;80;20114;-75
2021/07/13 12:01:37;;;;;;;;;;;;;;;28.57;59.28;100360.91;1741485;80;20154;-75
2021/07/13 12:04:06;;;;;;;;;;;;;;;28.52;59.17;100353.02;1730472;80;20100;-75
2021/07/13 12:06:33;;;;;;;;;;;;;;;28.49;59.15;100359.47;1738770;80;20136;-75
2021/07/13 12:09:01;;;;;;;;;;;;;;;28.48;59.13;100363.12;1766557;80;20177;-75
2021/07/13 12:11:29;;;;;;;;;;;;;;;28.47;59.12;100357.45;1733219;80;20104;-76
2021/07/13 12:13:57;;;;;;;;;;;;;;;28.42;58.89;100355.72;1725364;81;20144;-76
2021/07/13 12:16:29;;;;;;;;;;;;;;;28.48;59.19;100351.14;1734756;81;20293;-76
2021/07/13 12:18:57;;;;;;;;;;;;;;;28.54;59.03;100349.23;1743435;80;20203;-75
2021/07/13 12:21:23;;;;;;;;;;;;;;;28.56;58.89;100351.25;1728494;80;20237;-75
2021/07/13 12:23:51;;;;;;;;;;;;;;;28.61;58.86;100354.28;1702415;81;20180;-75
2021/07/13 12:26:34;;;;;;;;;;;;;;;28.66;58.77;100353.34;1737776;81;20083;-75
2021/07/13 12:29:03;;;;;;;;;;;;;;;28.60;58.80;100355.27;1753125;81;20128;-75
2021/07/13 12:31:29;;;;;;;;;;;;;;;28.57;58.71;100354.75;1746511;80;20204;-76
2021/07/13 12:33:55;;;;;;;;;;;;;;;28.58;58.81;100358.59;1753148;80;20439;-75
2021/07/13 12:36:34;;;;;;;;;;;;;;;28.60;58.67;100351.77;1733268;80;20113;-75
2021/07/13 12:39:22;;;;;;;;;;;;;;;28.63;58.64;100352.31;1743862;81;20084;-75
2021/07/13 12:42:12;;;;;;;;;;;;;;;28.70;58.51;100350.39;1750771;80;20088;-75
2021/07/13 12:44:54;;;;;;;;;;;;;;;28.76;58.60;100352.47;1738319;82;20102;-74
2021/07/13 12:47:24;;;;;;;;;;;;;;;28.78;58.49;100357.98;1746965;80;20134;-76
2021/07/13 12:50:11;;;;;;;;;;;;;;;28.74;58.34;100347.78;1749727;80;20125;-76